createdAt,value
2018-05-31T00:01:31.307Z,99772.61
2018-05-31T00:03:57.643Z,99767.66
2018-05-31T00:06:23.941Z,99765.48
2018-05-31T00:08:50.268Z,99761.24
2018-05-31T00:11:17.403Z,99761.50
2018-05-31T00:13:43.708Z,99760.14
2018-05-31T00:16:10.022Z,99754.50
2018-05-31T00:18:36.363Z,99752.94
2018-05-31T00:21:02.716Z,99754.08
2018-05-31T00:23:28.991Z,99753.64
2018-05-31T00:25:56.057Z,99753.16
2018-05-31T00:28:22.386Z,99743.39
2018-05-31T00:30:49.408Z,99737.41
2018-05-31T00:33:15.721Z,99740.47
2018-05-31T00:35:42.053Z,99744.48
2018-05-31T00:38:08.391Z,99740.47
2018-05-31T00:40:34.713Z,99744.37
2018-05-31T00:43:00.971Z,99734.71
2018-05-31T00:45:28.267Z,99725.30
2018-05-31T00:47:54.561Z,99729.71
2018-05-31T00:50:21.572Z,99725.45
2018-05-31T00:52:47.862Z,99732.98
2018-05-31T00:55:14.174Z,99731.84
2018-05-31T00:57:41.208Z,99735.00
2018-05-31T01:00:08.293Z,99731.00
2018-05-31T01:02:34.593Z,99729.78
2018-05-31T01:05:01.685Z,99732.23
2018-05-31T01:07:27.973Z,99736.88
2018-05-31T01:09:55.010Z,99736.80
2018-05-31T01:12:21.279Z,99737.22
2018-05-31T01:14:47.651Z,99738.72
2018-05-31T01:17:13.947Z,99727.38
2018-05-31T01:19:40.308Z,99734.45
2018-05-31T01:22:06.595Z,99741.33
2018-05-31T01:24:32.965Z,99734.22
2018-05-31T01:26:59.252Z,99729.81
2018-05-31T01:29:25.573Z,99726.25
2018-05-31T01:31:52.622Z,99734.41
2018-05-31T01:34:19.668Z,99735.84
2018-05-31T01:36:46.725Z,99739.57
2018-05-31T01:39:17.126Z,99737.98
2018-05-31T01:41:44.214Z,99736.38
2018-05-31T01:44:10.498Z,99736.83
2018-05-31T01:46:36.821Z,99738.80
2018-05-31T01:49:03.109Z,99741.39
2018-05-31T01:51:29.421Z,99738.17
2018-05-31T01:53:56.452Z,99738.25
2018-05-31T01:56:22.729Z,99732.86
2018-05-31T01:58:49.068Z,99739.30
2018-05-31T02:01:15.400Z,99750.63
2018-05-31T02:03:41.776Z,99751.39
2018-05-31T02:06:08.073Z,99745.70
2018-05-31T02:08:34.552Z,99745.87
2018-05-31T02:11:00.898Z,99749.98
2018-05-31T02:13:28.004Z,99751.06
2018-05-31T02:15:55.040Z,99749.52
2018-05-31T02:18:21.393Z,99746.58
2018-05-31T02:20:49.201Z,99750.60
2018-05-31T02:23:15.489Z,99751.85
2018-05-31T02:25:41.783Z,99756.67
2018-05-31T02:28:08.079Z,99758.28
2018-05-31T02:30:35.138Z,99757.45
2018-05-31T02:33:01.454Z,99755.08
2018-05-31T02:35:28.512Z,99754.70
2018-05-31T02:37:54.785Z,99756.23
2018-05-31T02:40:21.135Z,99752.70
2018-05-31T02:42:47.745Z,99746.05
2018-05-31T02:45:14.189Z,99749.54
2018-05-31T02:47:40.551Z,99755.11
2018-05-31T02:50:07.654Z,99751.20
2018-05-31T02:52:33.984Z,99751.70
2018-05-31T02:55:00.339Z,99753.69
2018-05-31T02:57:26.646Z,99753.21
2018-05-31T02:59:52.954Z,99747.68
2018-05-31T03:02:19.213Z,99746.77
2018-05-31T03:04:45.529Z,99750.54
2018-05-31T03:07:11.816Z,99747.88
2018-05-31T03:09:38.125Z,99755.41
2018-05-31T03:12:04.449Z,99753.33
2018-05-31T03:14:31.043Z,99760.02
2018-05-31T03:16:58.095Z,99757.53
2018-05-31T03:19:24.679Z,99762.14
2018-05-31T03:21:51.115Z,99757.45
2018-05-31T03:24:17.429Z,99763.11
2018-05-31T03:26:52.666Z,99758.91
2018-05-31T03:29:19.041Z,99752.52
2018-05-31T03:31:46.078Z,99756.46
2018-05-31T03:34:12.356Z,99758.77
2018-05-31T03:36:38.711Z,99764.55
2018-05-31T03:39:05.059Z,99755.91
2018-05-31T03:41:31.399Z,99752.97
2018-05-31T03:43:57.728Z,99748.02
2018-05-31T03:46:24.094Z,99754.30
2018-05-31T03:48:50.396Z,99755.34
2018-05-31T03:51:16.695Z,99750.39
2018-05-31T03:53:43.019Z,99754.83
2018-05-31T03:56:09.375Z,99757.38
2018-05-31T03:58:35.675Z,99760.53
2018-05-31T04:01:02.006Z,99761.62
2018-05-31T04:03:28.262Z,99762.45
2018-05-31T04:05:54.567Z,99761.76
2018-05-31T04:08:20.872Z,99758.25
2018-05-31T04:10:47.977Z,99759.56
2018-05-31T04:13:14.319Z,99763.80
2018-05-31T04:15:40.603Z,99763.87
2018-05-31T04:18:06.946Z,99759.11
2018-05-31T04:20:33.298Z,99751.27
2018-05-31T04:22:59.675Z,99758.05
2018-05-31T04:25:26.755Z,99756.00
2018-05-31T04:27:53.094Z,99760.50
2018-05-31T04:30:19.411Z,99755.27
2018-05-31T04:32:45.714Z,99758.69
2018-05-31T04:35:12.744Z,99762.12
2018-05-31T04:37:39.041Z,99762.63
2018-05-31T04:40:05.326Z,99762.23
2018-05-31T04:42:32.418Z,99761.67
2018-05-31T04:44:59.489Z,99767.78
2018-05-31T04:47:25.809Z,99771.13
2018-05-31T04:49:52.139Z,99775.05
2018-05-31T04:52:18.472Z,99784.13
2018-05-31T04:54:44.800Z,99781.33
2018-05-31T04:57:11.118Z,99784.51
2018-05-31T04:59:37.369Z,99779.44
2018-05-31T05:02:03.681Z,99788.94
2018-05-31T05:04:30.011Z,99782.09
2018-05-31T05:06:56.336Z,99776.97
2018-05-31T05:09:22.684Z,99781.13
2018-05-31T05:11:49.012Z,99782.44
2018-05-31T05:14:15.285Z,99788.55
2018-05-31T05:16:42.349Z,99795.49
2018-05-31T05:19:08.642Z,99789.56
2018-05-31T05:21:34.974Z,99794.92
2018-05-31T05:24:01.266Z,99792.16
2018-05-31T05:26:27.609Z,99796.56
2018-05-31T05:28:53.897Z,99790.08
2018-05-31T05:31:20.950Z,99789.16
2018-05-31T05:33:47.959Z,99787.63
2018-05-31T05:36:14.259Z,99793.27
2018-05-31T05:38:40.539Z,99796.38
2018-05-31T05:41:07.597Z,99796.78
2018-05-31T05:43:34.655Z,99800.61
2018-05-31T05:46:01.703Z,99794.04
2018-05-31T05:48:28.028Z,99793.36
2018-05-31T05:50:55.110Z,99783.82
2018-05-31T05:53:21.410Z,99791.84
2018-05-31T05:55:48.440Z,99794.98
2018-05-31T05:58:14.729Z,99799.80
2018-05-31T06:00:41.017Z,99804.30
2018-05-31T06:03:08.054Z,99802.51
2018-05-31T06:05:35.075Z,99801.31
2018-05-31T06:08:01.407Z,99796.08
2018-05-31T06:10:27.682Z,99798.61
2018-05-31T06:12:53.977Z,99801.73
2018-05-31T06:15:20.309Z,99798.55
2018-05-31T06:17:46.657Z,99806.36
2018-05-31T06:20:13.744Z,99796.33
2018-05-31T06:22:40.098Z,99797.41
2018-05-31T06:25:06.519Z,99796.96
2018-05-31T06:27:32.866Z,99798.32
2018-05-31T06:29:59.234Z,99795.70
2018-05-31T06:32:25.566Z,99797.17
2018-05-31T06:34:52.571Z,99789.95
2018-05-31T06:37:18.903Z,99790.46
2018-05-31T06:39:45.195Z,99782.50
2018-05-31T06:42:12.267Z,99789.91
2018-05-31T06:44:38.569Z,99795.03
2018-05-31T06:47:05.633Z,99793.56
2018-05-31T06:49:31.922Z,99798.96
2018-05-31T06:51:58.280Z,99794.34
2018-05-31T06:54:25.358Z,99789.64
2018-05-31T06:56:51.633Z,99788.14
2018-05-31T06:59:17.919Z,99794.97
2018-05-31T07:01:44.204Z,99799.72
2018-05-31T07:04:10.483Z,99797.37
2018-05-31T07:06:36.798Z,99803.06
2018-05-31T07:09:03.086Z,99802.27
2018-05-31T07:11:29.365Z,99794.07
2018-05-31T07:13:55.663Z,99794.97
2018-05-31T07:16:22.685Z,99794.55
2018-05-31T07:18:48.929Z,99789.16
2018-05-31T07:21:15.255Z,99786.31
2018-05-31T07:23:41.571Z,99789.56
2018-05-31T07:26:07.842Z,99791.64
2018-05-31T07:28:34.204Z,99793.20
2018-05-31T07:31:00.549Z,99790.09
2018-05-31T07:33:26.861Z,99787.63
2018-05-31T07:35:53.166Z,99788.64
2018-05-31T07:38:20.185Z,99797.66
2018-05-31T07:40:47.498Z,99795.20
2018-05-31T07:43:13.822Z,99794.36
2018-05-31T07:45:40.112Z,99789.57
2018-05-31T07:48:07.200Z,99791.44
2018-05-31T07:50:33.545Z,99795.44
2018-05-31T07:52:59.854Z,99796.70
2018-05-31T07:55:27.143Z,99793.98
2018-05-31T07:57:53.484Z,99797.67
2018-05-31T08:00:19.786Z,99799.47
2018-05-31T08:02:46.102Z,99797.91
2018-05-31T08:05:13.007Z,99793.30
2018-05-31T08:07:39.427Z,99794.56
2018-05-31T08:10:05.732Z,99793.95
2018-05-31T08:12:32.055Z,99801.35
2018-05-31T08:14:58.333Z,99795.53
2018-05-31T08:17:24.623Z,99796.88
2018-05-31T08:19:50.945Z,99794.09
2018-05-31T08:22:17.305Z,99793.53
2018-05-31T08:24:43.661Z,99791.35
2018-05-31T08:27:09.986Z,99798.35
2018-05-31T08:29:36.369Z,99801.61
2018-05-31T08:32:02.647Z,99808.33
2018-05-31T08:34:28.910Z,99808.81
2018-05-31T08:36:55.953Z,99810.98
2018-05-31T08:39:22.960Z,99814.80
2018-05-31T08:41:49.252Z,99808.36
2018-05-31T08:44:15.570Z,99803.37
2018-05-31T08:46:41.849Z,99805.27
2018-05-31T08:49:08.156Z,99805.36
2018-05-31T08:51:34.482Z,99800.61
2018-05-31T08:54:00.795Z,99803.13
2018-05-31T08:56:27.098Z,99806.18
2018-05-31T08:58:53.448Z,99798.83
2018-05-31T09:01:20.513Z,99795.29
2018-05-31T09:03:46.862Z,99794.83
2018-05-31T09:06:13.150Z,99791.24
2018-05-31T09:08:40.211Z,99788.67
2018-05-31T09:11:08.237Z,99781.52
2018-05-31T09:13:34.498Z,99790.45
2018-05-31T09:16:01.536Z,99788.28
2018-05-31T09:18:28.443Z,99784.77
2018-05-31T09:20:54.749Z,99790.78
2018-05-31T09:23:21.057Z,99784.77
2018-05-31T09:25:48.116Z,99777.70
2018-05-31T09:28:14.429Z,99785.17
2018-05-31T09:30:41.495Z,99782.46
2018-05-31T09:33:09.347Z,99787.72
2018-05-31T09:35:36.430Z,99778.59
2018-05-31T09:38:02.750Z,99781.22
2018-05-31T09:40:29.070Z,99774.16
2018-05-31T09:42:56.105Z,99776.83
2018-05-31T09:45:22.374Z,99772.74
2018-05-31T09:47:48.675Z,99767.16
2018-05-31T09:50:15.825Z,99766.12
2018-05-31T09:52:42.900Z,99769.39
2018-05-31T09:55:09.193Z,99772.64
2018-05-31T09:57:35.473Z,99777.11
2018-05-31T10:00:01.814Z,99775.13
2018-05-31T10:02:28.108Z,99777.14
2018-05-31T10:04:54.430Z,99777.02
2018-05-31T10:07:21.483Z,99777.03
2018-05-31T10:09:48.563Z,99772.67
2018-05-31T10:12:14.898Z,99763.22
2018-05-31T10:14:41.207Z,99766.35
2018-05-31T10:17:07.498Z,99765.30
2018-05-31T10:19:33.824Z,99770.06
2018-05-31T10:22:00.168Z,99764.28
2018-05-31T10:24:26.457Z,99765.90
2018-05-31T10:26:52.805Z,99768.62
2018-05-31T10:29:19.635Z,99768.71
2018-05-31T10:31:45.943Z,99767.34
2018-05-31T10:34:12.278Z,99767.39
2018-05-31T10:36:38.610Z,99760.03
2018-05-31T10:39:04.905Z,99759.70
2018-05-31T10:41:32.018Z,99769.86
2018-05-31T10:43:58.300Z,99768.05
2018-05-31T10:46:25.160Z,99761.94
2018-05-31T10:48:51.463Z,99759.66
2018-05-31T10:51:18.857Z,99762.08
2018-05-31T10:53:45.164Z,99754.06
2018-05-31T10:56:12.226Z,99754.13
2018-05-31T10:58:38.512Z,99751.11
2018-05-31T11:01:04.903Z,99745.91
2018-05-31T11:03:31.198Z,99748.19
2018-05-31T11:05:58.264Z,99744.94
2018-05-31T11:08:24.535Z,99746.70
2018-05-31T11:10:52.289Z,99744.42
2018-05-31T11:13:18.583Z,99750.48
2018-05-31T11:15:44.934Z,99748.96
2018-05-31T11:18:11.220Z,99744.97
2018-05-31T11:20:38.463Z,99745.17
2018-05-31T11:23:04.822Z,99740.08
2018-05-31T11:25:31.194Z,99738.61
2018-05-31T11:27:57.509Z,99737.16
2018-05-31T11:30:23.837Z,99740.22
2018-05-31T11:32:50.167Z,99738.48
2018-05-31T11:35:16.460Z,99740.93
2018-05-31T11:37:44.109Z,99740.97
2018-05-31T11:40:10.479Z,99741.27
2018-05-31T11:42:36.850Z,99735.56
2018-05-31T11:45:03.155Z,99728.27
2018-05-31T11:47:29.476Z,99730.38
2018-05-31T11:49:55.805Z,99727.61
2018-05-31T11:52:22.183Z,99722.91
2018-05-31T11:54:48.482Z,99730.37
2018-05-31T11:57:14.783Z,99727.23
2018-05-31T11:59:41.846Z,99725.33
2018-05-31T12:02:08.119Z,99724.84
2018-05-31T12:04:34.459Z,99727.01
2018-05-31T12:07:00.787Z,99730.19
2018-05-31T12:09:27.132Z,99741.52
2018-05-31T12:11:54.231Z,99738.06
2018-05-31T12:14:20.556Z,99733.99
2018-05-31T12:16:46.874Z,99733.78
2018-05-31T12:19:13.935Z,99735.44
2018-05-31T12:21:40.220Z,99744.76
2018-05-31T12:24:06.493Z,99735.49
2018-05-31T12:26:32.783Z,99745.61
2018-05-31T12:28:59.056Z,99731.28
2018-05-31T12:31:25.322Z,99743.42
2018-05-31T12:33:51.584Z,99738.41
2018-05-31T12:36:18.626Z,99734.42
2018-05-31T12:38:44.972Z,99727.30
2018-05-31T12:41:11.999Z,99728.69
2018-05-31T12:43:38.319Z,99729.78
2018-05-31T12:46:04.617Z,99726.42
2018-05-31T12:48:30.912Z,99723.38
2018-05-31T12:50:57.972Z,99732.78
2018-05-31T12:53:24.276Z,99737.02
2018-05-31T12:55:50.629Z,99739.09
2018-05-31T12:58:16.899Z,99721.45
2018-05-31T13:00:43.206Z,99724.27
2018-05-31T13:03:09.543Z,99722.34
2018-05-31T13:05:35.893Z,99725.46
2018-05-31T13:08:02.176Z,99720.86
2018-05-31T13:10:29.167Z,99723.38
2018-05-31T13:12:55.493Z,99719.34
2018-05-31T13:15:21.788Z,99714.89
2018-05-31T13:17:48.827Z,99714.16
2018-05-31T13:20:15.885Z,99708.95
2018-05-31T13:22:42.960Z,99708.68
2018-05-31T13:25:09.294Z,99717.27
2018-05-31T13:27:35.614Z,99712.15
2018-05-31T13:30:01.881Z,99706.95
2018-05-31T13:32:28.205Z,99704.65
2018-05-31T13:34:54.505Z,99704.66
2018-05-31T13:37:20.800Z,99712.19
2018-05-31T13:39:47.066Z,99708.47
2018-05-31T13:42:13.418Z,99710.64
2018-05-31T13:44:39.673Z,99698.36
2018-05-31T13:47:05.960Z,99708.86
2018-05-31T13:49:32.257Z,99705.69
2018-05-31T13:51:59.331Z,99701.53
2018-05-31T13:54:25.678Z,99690.91
2018-05-31T13:56:52.087Z,99685.98
2018-05-31T13:59:19.123Z,99685.50
2018-05-31T14:01:46.192Z,99680.53
2018-05-31T14:04:12.543Z,99681.89
2018-05-31T14:06:38.893Z,99677.06
2018-05-31T14:09:05.266Z,99677.88
2018-05-31T14:11:32.356Z,99678.48
2018-05-31T14:13:58.645Z,99673.05
2018-05-31T14:16:25.665Z,99681.37
2018-05-31T14:18:51.947Z,99677.52
2018-05-31T14:21:18.614Z,99686.24
2018-05-31T14:23:51.834Z,99690.98
2018-05-31T14:26:18.130Z,99691.92
2018-05-31T14:28:44.455Z,99676.82
2018-05-31T14:31:10.725Z,99665.80
2018-05-31T14:33:37.048Z,99666.88
2018-05-31T14:36:03.327Z,99671.92
2018-05-31T14:38:29.637Z,99668.13
2018-05-31T14:40:56.683Z,99652.30
2018-05-31T14:43:23.767Z,99640.34
2018-05-31T14:45:50.101Z,99641.09
2018-05-31T14:48:16.410Z,99646.91
2018-05-31T14:50:43.461Z,99644.56
2018-05-31T14:53:09.782Z,99649.55
2018-05-31T14:55:36.805Z,99648.05
2018-05-31T14:58:03.125Z,99645.86
2018-05-31T15:00:29.447Z,99629.73
2018-05-31T15:02:55.749Z,99632.36
2018-05-31T15:05:22.055Z,99635.97
2018-05-31T15:07:49.092Z,99636.98
2018-05-31T15:10:16.118Z,99636.68
2018-05-31T15:12:42.418Z,99632.80
2018-05-31T15:15:08.733Z,99634.38
2018-05-31T15:17:35.079Z,99631.67
2018-05-31T15:20:01.411Z,99626.89
2018-05-31T15:22:27.829Z,99627.55
2018-05-31T15:24:54.172Z,99619.23
2018-05-31T15:27:20.433Z,99626.47
2018-05-31T15:29:46.763Z,99628.50
2018-05-31T15:32:13.099Z,99626.05
2018-05-31T15:34:39.396Z,99619.58
2018-05-31T15:37:05.722Z,99624.12
2018-05-31T15:39:32.035Z,99628.84
2018-05-31T15:41:59.082Z,99627.48
2018-05-31T15:44:26.178Z,99628.16
2018-05-31T15:46:52.485Z,99623.77
2018-05-31T15:49:18.798Z,99614.03
2018-05-31T15:51:45.093Z,99607.35
2018-05-31T15:54:11.354Z,99601.70
2018-05-31T15:56:37.912Z,99601.81
2018-05-31T15:59:04.239Z,99599.17
2018-05-31T16:01:30.551Z,99601.58
2018-05-31T16:03:57.658Z,99589.87
2018-05-31T16:06:23.986Z,99585.27
2018-05-31T16:08:50.332Z,99575.05
2018-05-31T16:11:16.630Z,99576.23
2018-05-31T16:13:42.988Z,99572.14
2018-05-31T16:16:09.308Z,99570.23
2018-05-31T16:18:35.622Z,99568.42
2018-05-31T16:21:01.919Z,99576.18
2018-05-31T16:23:29.009Z,99578.43
2018-05-31T16:25:55.302Z,99576.13
2018-05-31T16:28:21.608Z,99573.69
2018-05-31T16:30:47.834Z,99572.73
2018-05-31T16:33:14.133Z,99569.16
2018-05-31T16:35:40.430Z,99567.27
2018-05-31T16:38:06.731Z,99552.61
2018-05-31T16:40:33.782Z,99554.94
2018-05-31T16:43:00.870Z,99550.69
2018-05-31T16:45:27.175Z,99550.65
2018-05-31T16:47:54.226Z,99548.87
2018-05-31T16:50:20.495Z,99537.53
2018-05-31T16:52:46.761Z,99536.55
2018-05-31T16:55:13.055Z,99543.92
2018-05-31T16:57:39.334Z,99536.11
2018-05-31T17:00:06.378Z,99537.20
2018-05-31T17:02:33.429Z,99536.05
2018-05-31T17:05:00.502Z,99531.61
2018-05-31T17:07:26.779Z,99528.56
2018-05-31T17:09:53.057Z,99521.39
2018-05-31T17:12:19.411Z,99522.70
2018-05-31T17:14:45.710Z,99526.89
2018-05-31T17:17:12.797Z,99532.97
2018-05-31T17:19:39.081Z,99520.93
2018-05-31T17:22:06.158Z,99521.99
2018-05-31T17:24:32.480Z,99529.27
2018-05-31T17:26:58.735Z,99530.56
2018-05-31T17:29:25.081Z,99536.05
2018-05-31T17:31:51.401Z,99545.17
2018-05-31T17:34:17.700Z,99550.23
2018-05-31T17:36:44.006Z,99551.20
2018-05-31T17:39:10.313Z,99560.13
2018-05-31T17:41:36.670Z,99563.23
2018-05-31T17:44:03.744Z,99572.17
2018-05-31T17:46:30.056Z,99570.30
2018-05-31T17:48:57.157Z,99568.51
2018-05-31T17:51:23.452Z,99565.59
2018-05-31T17:53:56.828Z,99568.41
2018-05-31T17:56:23.879Z,99562.42
2018-05-31T17:58:50.965Z,99566.81
2018-05-31T18:01:17.260Z,99566.98
2018-05-31T18:03:43.556Z,99571.48
2018-05-31T18:06:09.840Z,99564.05
2018-05-31T18:08:36.444Z,99563.45
2018-05-31T18:11:02.718Z,99566.13
2018-05-31T18:13:29.024Z,99570.17
2018-05-31T18:15:56.063Z,99570.16
2018-05-31T18:18:23.183Z,99563.81
2018-05-31T18:20:49.566Z,99571.52
2018-05-31T18:23:15.839Z,99573.47
2018-05-31T18:25:43.192Z,99578.48
2018-05-31T18:28:09.487Z,99582.67
2018-05-31T18:30:35.849Z,99584.73
2018-05-31T18:33:02.229Z,99586.80
2018-05-31T18:35:28.619Z,99589.98
2018-05-31T18:37:54.930Z,99590.92
2018-05-31T18:40:21.268Z,99595.02
2018-05-31T18:42:47.528Z,99602.22
2018-05-31T18:45:13.852Z,99598.16
2018-05-31T18:47:40.340Z,99601.91
2018-05-31T18:50:06.683Z,99610.72
2018-05-31T18:52:33.044Z,99609.62
2018-05-31T18:54:59.415Z,99613.45
2018-05-31T18:57:26.473Z,99611.92
2018-05-31T18:59:52.754Z,99619.47
2018-05-31T19:02:19.196Z,99622.58
2018-05-31T19:04:45.542Z,99621.25
2018-05-31T19:07:12.203Z,99624.15
2018-05-31T19:09:39.269Z,99619.58
2018-05-31T19:12:05.634Z,99624.64
2018-05-31T19:14:31.946Z,99619.22
2018-05-31T19:16:58.236Z,99628.80
2018-05-31T19:19:31.467Z,99631.32
2018-05-31T19:21:57.813Z,99635.22
2018-05-31T19:24:30.241Z,99635.83
2018-05-31T19:26:57.353Z,99627.95
2018-05-31T19:29:23.654Z,99640.59
2018-05-31T19:31:50.001Z,99637.97
2018-05-31T19:34:16.315Z,99638.38
2018-05-31T19:36:48.772Z,99641.70
2018-05-31T19:39:15.825Z,99641.59
2018-05-31T19:41:42.117Z,99642.55
2018-05-31T19:44:14.581Z,99645.07
2018-05-31T19:46:40.936Z,99646.13
2018-05-31T19:49:07.377Z,99646.83
2018-05-31T19:51:40.630Z,99643.32
2018-05-31T19:54:06.933Z,99643.61
2018-05-31T19:56:33.233Z,99647.01
2018-05-31T19:59:06.484Z,99645.22
2018-05-31T20:01:38.910Z,99638.11
2018-05-31T20:04:06.009Z,99640.16
2018-05-31T20:06:32.347Z,99642.38
2018-05-31T20:08:58.649Z,99650.20
2018-05-31T20:11:25.010Z,99652.31
2018-05-31T20:13:51.308Z,99652.99
2018-05-31T20:16:17.575Z,99651.98
2018-05-31T20:18:43.923Z,99657.41
2018-05-31T20:21:10.200Z,99655.02
2018-05-31T20:23:36.552Z,99656.02
2018-05-31T20:26:02.975Z,99656.95
2018-05-31T20:28:29.322Z,99655.27
2018-05-31T20:30:56.492Z,99654.83
2018-05-31T20:33:22.783Z,99657.17
2018-05-31T20:35:49.135Z,99658.12
2018-05-31T20:38:15.442Z,99665.24
2018-05-31T20:40:41.871Z,99667.52
2018-05-31T20:43:08.188Z,99667.59
2018-05-31T20:45:34.471Z,99662.73
2018-05-31T20:48:00.789Z,99664.06
2018-05-31T20:50:27.093Z,99667.92
2018-05-31T20:52:53.371Z,99665.55
2018-05-31T20:55:19.650Z,99664.83
2018-05-31T20:57:45.906Z,99668.64
2018-05-31T21:00:12.211Z,99670.60
2018-05-31T21:02:38.505Z,99674.56
2018-05-31T21:05:06.650Z,99677.61
2018-05-31T21:07:32.982Z,99677.41
2018-05-31T21:09:59.306Z,99676.73
2018-05-31T21:12:25.707Z,99674.05
2018-05-31T21:14:52.007Z,99675.98
2018-05-31T21:17:19.030Z,99674.92
2018-05-31T21:19:45.334Z,99670.43
2018-05-31T21:22:11.573Z,99676.59
2018-05-31T21:24:37.920Z,99673.45
2018-05-31T21:27:04.217Z,99672.91
2018-05-31T21:29:30.505Z,99680.75
2018-05-31T21:31:57.570Z,99683.47
2018-05-31T21:34:23.851Z,99688.52
2018-05-31T21:36:50.137Z,99679.03
2018-05-31T21:39:16.703Z,99680.95
2018-05-31T21:41:42.925Z,99684.19
2018-05-31T21:44:09.207Z,99678.14
2018-05-31T21:46:35.506Z,99675.59
2018-05-31T21:49:01.810Z,99680.02
2018-05-31T21:51:28.121Z,99679.75
2018-05-31T21:53:54.376Z,99680.11
2018-05-31T21:56:20.699Z,99676.55
2018-05-31T21:58:46.982Z,99673.87
2018-05-31T22:01:13.294Z,99675.03
2018-05-31T22:03:39.583Z,99676.67
2018-05-31T22:06:05.894Z,99675.33
2018-05-31T22:08:32.940Z,99669.48
2018-05-31T22:11:00.000Z,99666.91
2018-05-31T22:13:27.250Z,99668.77
2018-05-31T22:15:53.912Z,99670.71
2018-05-31T22:18:20.443Z,99666.92
2018-05-31T22:20:46.900Z,99666.08
2018-05-31T22:23:13.343Z,99664.25
2018-05-31T22:25:40.597Z,99659.84
2018-05-31T22:28:07.066Z,99667.70
2018-05-31T22:30:34.252Z,99660.67
2018-05-31T22:33:00.729Z,99665.87
2018-05-31T22:35:27.102Z,99664.83
2018-05-31T22:37:53.666Z,99669.78
2018-05-31T22:40:20.253Z,99667.00
2018-05-31T22:42:46.713Z,99667.21
2018-05-31T22:45:13.386Z,99665.89
2018-05-31T22:47:39.658Z,99665.78
2018-05-31T22:50:07.023Z,99662.74
2018-05-31T22:52:34.085Z,99666.95
2018-05-31T22:55:00.473Z,99667.02
2018-05-31T22:57:26.905Z,99668.14
2018-05-31T22:59:54.712Z,99660.63
2018-05-31T23:02:21.803Z,99660.33
2018-05-31T23:04:48.103Z,99665.87
2018-05-31T23:07:14.383Z,99668.64
2018-05-31T23:09:40.684Z,99664.31
2018-05-31T23:12:06.970Z,99662.08
2018-05-31T23:14:34.018Z,99661.86
2018-05-31T23:17:01.066Z,99664.31
2018-05-31T23:19:28.081Z,99667.91
2018-05-31T23:21:54.343Z,99664.39
2018-05-31T23:24:21.368Z,99658.11
2018-05-31T23:26:47.723Z,99662.86
2018-05-31T23:29:14.768Z,99667.67
2018-05-31T23:31:41.816Z,99661.53
2018-05-31T23:34:08.814Z,99663.28
2018-05-31T23:36:35.397Z,99649.80
2018-05-31T23:39:02.457Z,99649.58
2018-05-31T23:41:29.467Z,99653.05
2018-05-31T23:43:55.830Z,99646.34
2018-05-31T23:46:22.902Z,99648.73
2018-05-31T23:48:49.180Z,99642.66
2018-05-31T23:51:15.457Z,99640.59
2018-05-31T23:53:41.741Z,99643.13
2018-05-31T23:56:08.041Z,99646.92
2018-05-31T23:58:34.351Z,99643.23
